Weather reports worldwide

Advertisment
Dalwhinnie, United Kingdom (99005): temperature & dewpoint: 12.08.2019 02:00:00 - 18.08.2019 02:00:00 (BST)Dalwhinnie, United Kingdom (99005): precipitation: 12.08.2019 02:00:00 - 18.08.2019 02:00:00 (BST)
Date & Time tt [°C] td [°C] rr [mm]
18.08.2019 02:00:00 10,4 8,6 0,2
18.08.2019 01:00:00 11,3 7,9 0,0
18.08.2019 00:00:00 10,7 8,1 0,2
17.08.2019 23:00:00 10,8 7,2 0,0
17.08.2019 22:00:00 10,9 7,3 0,0
17.08.2019 21:00:00 11,0 7,6 0,0
17.08.2019 20:00:00 10,9 8,3 0,6
17.08.2019 19:00:00 11,1 7,8 0,4
17.08.2019 18:00:00 13,2 6,1 0,0
17.08.2019 17:00:00 13,7 8,4 0,0
17.08.2019 16:00:00 13,0 7,8 0,2
17.08.2019 15:00:00 12,5 7,7 0,2
17.08.2019 14:00:00 13,0 6,8 0,0
17.08.2019 13:00:00 11,2 7,9 0,0
17.08.2019 12:00:00 10,5 7,9 1,6
17.08.2019 11:00:00 11,6 8,2 0,2
17.08.2019 10:00:00 10,4 8,1 0,4
17.08.2019 09:00:00 11,2 6,8 0,0
17.08.2019 08:00:00 11,4 8,2 0,0
17.08.2019 07:00:00 9,5 7,5 0,0
17.08.2019 06:00:00 10,6 7,8 0,0
17.08.2019 05:00:00 11,5 10,0 1,4
17.08.2019 04:00:00 11,6 9,9 0,0
17.08.2019 03:00:00 11,8 10,2 0,8
17.08.2019 02:00:00 12,2 10,1 0,0
17.08.2019 01:00:00 11,9 10,1 0,0
17.08.2019 00:00:00 12,2 10,6 0,0
16.08.2019 23:00:00 11,9 10,7 0,0
16.08.2019 22:00:00 12,6 11,0 0,6
16.08.2019 21:00:00 13,7 11,9 0,2
16.08.2019 20:00:00 14,4 11,5 0,0
16.08.2019 19:00:00 15,0 11,5 0,0
16.08.2019 18:00:00 14,7 11,5 0,0
16.08.2019 17:00:00 15,3 10,7 0,0
16.08.2019 16:00:00 14,4 12,2 0,4
16.08.2019 15:00:00 15,1 14,1 0,2
16.08.2019 14:00:00 15,7 13,7 0,0
16.08.2019 13:00:00 14,5 12,6 0,2
16.08.2019 12:00:00 14,1 12,0 0,2
16.08.2019 11:00:00 14,2 12,3 0,2
16.08.2019 10:00:00 13,3 11,1 0,0
16.08.2019 09:00:00 12,9 10,8 0,0
16.08.2019 08:00:00 13,3 10,7 0,4
16.08.2019 07:00:00 12,1 10,8 0,6
16.08.2019 06:00:00 12,4 10,6 0,2
16.08.2019 05:00:00 12,3 10,7 0,0
16.08.2019 04:00:00 12,6 10,6 0,2
16.08.2019 03:00:00 12,0 10,5 0,2
16.08.2019 02:00:00 11,6 9,8 0,0
16.08.2019 01:00:00 11,0 9,6 0,0
16.08.2019 00:00:00 10,8 9,5 0,0
15.08.2019 23:00:00 10,8 9,0 0,0
15.08.2019 22:00:00 11,1 8,3 0,0
15.08.2019 21:00:00 11,4 7,2 0,0
15.08.2019 20:00:00 12,4 6,7 0,0
15.08.2019 19:00:00 13,5 5,7 0,0
15.08.2019 18:00:00 13,8 4,0 0,0
15.08.2019 17:00:00 13,9 6,0 0,0
15.08.2019 16:00:00 14,0 5,3 0,0
15.08.2019 15:00:00 13,1 5,5 0,0
15.08.2019 14:00:00 12,9 4,4 0,0
15.08.2019 13:00:00 13,1 4,9 0,0
15.08.2019 12:00:00 11,6 6,8 0,0
15.08.2019 11:00:00 11,1 8,1 0,0
15.08.2019 10:00:00 11,0 8,9 0,0
15.08.2019 09:00:00 11,2 9,1 0,2
15.08.2019 08:00:00 12,4 10,1 0,0
15.08.2019 07:00:00 12,0 10,5 0,0
15.08.2019 06:00:00 11,7 9,8 0,0
15.08.2019 05:00:00 11,4 11,0 0,2
15.08.2019 04:00:00 10,1 9,4 0,0
15.08.2019 03:00:00 10,4 9,5 0,0
15.08.2019 02:00:00 11,0 10,0 0,0
15.08.2019 01:00:00 12,3 11,4 1,0
15.08.2019 00:00:00 12,8 11,1 0,6
14.08.2019 23:00:00 12,5 10,9 1,0
14.08.2019 22:00:00 12,4 10,7 0,4
14.08.2019 21:00:00 12,4 10,3 0,0
14.08.2019 20:00:00 12,3 9,7 0,0
14.08.2019 19:00:00 12,4 9,1 0,0
14.08.2019 18:00:00 13,3 8,9 0,0
14.08.2019 17:00:00 13,6 8,8 0,0
14.08.2019 16:00:00 14,0 9,1 0,0
14.08.2019 15:00:00 13,3 8,9 0,0
14.08.2019 14:00:00 12,2 8,9 0,0
14.08.2019 13:00:00 11,3 8,2 0,0
14.08.2019 12:00:00 11,2 7,7 0,0
14.08.2019 11:00:00 11,1 7,0 0,0
14.08.2019 10:00:00 10,9 6,7 0,0
14.08.2019 09:00:00 8,5 7,0 0,0
14.08.2019 08:00:00 7,0 6,2 0,0
14.08.2019 07:00:00 6,4 5,6 0,0
14.08.2019 06:00:00 5,9 5,0 0,0
14.08.2019 05:00:00 6,0 5,1 0,0
14.08.2019 04:00:00 6,5 4,9 0,0
14.08.2019 03:00:00 6,9 5,1 0,0
14.08.2019 02:00:00 6,7 4,9 0,0
14.08.2019 01:00:00 7,1 4,7 0,0
14.08.2019 00:00:00 6,7 4,7 0,0
13.08.2019 23:00:00 7,9 5,1 0,0
13.08.2019 22:00:00 9,2 5,4 0,0
13.08.2019 21:00:00 9,7 5,3 0,0
13.08.2019 20:00:00 10,5 6,2 0,0
13.08.2019 19:00:00 11,2 6,6 0,2
13.08.2019 18:00:00 12,3 4,9 0,0
13.08.2019 17:00:00 13,2 5,1 0,0
13.08.2019 16:00:00 13,9 4,7 0,0
13.08.2019 15:00:00 13,0 5,6 0,0
13.08.2019 14:00:00 12,0 4,7 0,0
13.08.2019 13:00:00 11,9 4,6 0,0
13.08.2019 12:00:00 12,6 6,3 0,0
13.08.2019 11:00:00 10,6 5,6 0,0
13.08.2019 10:00:00 10,8 5,0 0,0
13.08.2019 09:00:00 10,3 6,5 0,0
13.08.2019 08:00:00 9,3 6,0 0,0
13.08.2019 07:00:00 8,4 6,6 0,0
13.08.2019 06:00:00 6,9 5,9 0,0
13.08.2019 05:00:00 7,4 5,3 0,0
13.08.2019 04:00:00 9,1 6,0 0,0
13.08.2019 03:00:00 9,0 6,2 0,0
13.08.2019 02:00:00 8,1 6,9 0,0
13.08.2019 01:00:00 7,5 6,4 0,0
13.08.2019 00:00:00 8,4 6,9 0,0
12.08.2019 23:00:00 8,4 6,6 0,0
12.08.2019 22:00:00 9,6 6,7 0,0
12.08.2019 21:00:00 10,5 6,5 0,0
12.08.2019 20:00:00 11,3 6,7 0,0
12.08.2019 19:00:00 11,7 7,4 0,0
12.08.2019 18:00:00 11,5 8,1 0,0
12.08.2019 17:00:00 10,3 8,5 2,2
12.08.2019 16:00:00 10,7 7,1 0,0
12.08.2019 15:00:00 13,8 4,6 0,0
12.08.2019 14:00:00 - - 0,0
12.08.2019 13:00:00 12,9 3,9 0,0
12.08.2019 12:00:00 12,0 3,9 0,0
12.08.2019 11:00:00 10,7 3,4 0,0
12.08.2019 10:00:00 10,2 4,4 0,0
12.08.2019 09:00:00 9,7 5,4 0,0
12.08.2019 08:00:00 7,1 6,0 0,0
12.08.2019 07:00:00 5,4 4,6 0,0
12.08.2019 06:00:00 5,0 4,2 0,0
12.08.2019 05:00:00 4,8 4,1 0,0
12.08.2019 04:00:00 5,2 4,7 0,2
12.08.2019 03:00:00 5,7 4,8 0,0
12.08.2019 02:00:00 6,8 5,3 0,0

tt = temperature
td = dewpoint
rr = precipitation

Next stations